Longfield, United Kingdom
Current Conditions -  °F | °C
As of 11:20 AM on Friday 31 Oct 2014 (Local Time) from EGLC Reporting Station
Clear Clear  
Wind Chill: 70°   Ceiling: Unl
Heat Index: 70°   Visibility: 6mi
Dew Point: 55°   Wind: 6mph
Humidity: 60%   Direction: 170°S
Pressure: 30.06"   Gusts: NA
Location:  51.4°N, 0.3°E
Report Text: EGLC 311120Z 17005KT 130V230 CAVOK 21/13 Q1018
Loading
Personal Weather Stations






























Interactive Weather Map New forecast layout! Learn more

10-Day Weather Forecast

Advertisements
Track Severe Weather on mobile